SVBC/BLA METAR and TAF weather

Enter ICAO airport designator
Station Type Date Time Source
SVBC METAR 2020/07/09 19:02 UTC NOAA

SVBC 091902Z AUTO 00000KT NCD 0/// Q////


Station Type Date Time Source
SVBC Decoded METAR 2020/07/09 19:02 UTC NOAA

Barcelona, Venezuela (SVBC) 10-07N 064-41W 7M
Jul 09, 2020 - 03:02 PM EDT / 2020.07.09 1902 UTC
Wind: Calm:0
ob: SVBC 091902Z AUTO 00000KT NCD 0/// Q////
cycle: 19

Station Type Date Time Source
SVBC TAF 2020/07/10 18:46 UTC NOAA

TAF SVBC 101600Z 1018/1118 17005KT 9999 FEW013 SCT100 TX33/18Z TN24/08Z
BECMG 1018/1022 07007KT 9000 -DZ BKN016

Example: see airport list